sensor_id;sensor_type;location;lat;lon;timestamp;pressure;altitude;pressure_sealevel;temperature
19666;BMP180;9980;51.020;7.772;2022-11-20T00:01:29;97033.00;;;5.30
19666;BMP180;9980;51.020;7.772;2022-11-20T00:03:57;97021.00;;;5.30
19666;BMP180;9980;51.020;7.772;2022-11-20T00:06:24;97016.00;;;5.30
19666;BMP180;9980;51.020;7.772;2022-11-20T00:08:54;97032.00;;;5.30
19666;BMP180;9980;51.020;7.772;2022-11-20T00:11:23;97020.00;;;5.30
19666;BMP180;9980;51.020;7.772;2022-11-20T00:13:53;97017.00;;;5.30
19666;BMP180;9980;51.020;7.772;2022-11-20T00:16:23;97019.00;;;5.30
19666;BMP180;9980;51.020;7.772;2022-11-20T00:18:50;97025.00;;;5.30
19666;BMP180;9980;51.020;7.772;2022-11-20T00:21:23;97015.00;;;5.20
19666;BMP180;9980;51.020;7.772;2022-11-20T00:23:52;97015.00;;;5.20
19666;BMP180;9980;51.020;7.772;2022-11-20T00:26:22;97016.00;;;5.20
19666;BMP180;9980;51.020;7.772;2022-11-20T00:28:55;97007.00;;;5.20
19666;BMP180;9980;51.020;7.772;2022-11-20T00:31:22;96993.00;;;5.20
19666;BMP180;9980;51.020;7.772;2022-11-20T00:33:49;97019.00;;;5.20
19666;BMP180;9980;51.020;7.772;2022-11-20T00:36:19;96988.00;;;5.20
19666;BMP180;9980;51.020;7.772;2022-11-20T00:38:46;96986.00;;;5.20
19666;BMP180;9980;51.020;7.772;2022-11-20T00:41:15;97010.00;;;5.20
19666;BMP180;9980;51.020;7.772;2022-11-20T00:43:42;96992.00;;;5.20
19666;BMP180;9980;51.020;7.772;2022-11-20T00:46:18;97010.00;;;5.20
19666;BMP180;9980;51.020;7.772;2022-11-20T00:48:46;96979.00;;;5.20
19666;BMP180;9980;51.020;7.772;2022-11-20T00:51:16;96992.00;;;5.20
19666;BMP180;9980;51.020;7.772;2022-11-20T00:53:43;96998.00;;;5.20
19666;BMP180;9980;51.020;7.772;2022-11-20T00:56:13;97008.00;;;5.20
19666;BMP180;9980;51.020;7.772;2022-11-20T00:58:43;96993.00;;;5.20
19666;BMP180;9980;51.020;7.772;2022-11-20T01:01:14;97006.00;;;5.20
19666;BMP180;9980;51.020;7.772;2022-11-20T01:03:45;97002.00;;;5.20
19666;BMP180;9980;51.020;7.772;2022-11-20T01:06:16;97001.00;;;5.20
19666;BMP180;9980;51.020;7.772;2022-11-20T01:08:44;96998.00;;;5.20
19666;BMP180;9980;51.020;7.772;2022-11-20T01:11:27;97005.00;;;5.20
19666;BMP180;9980;51.020;7.772;2022-11-20T01:13:56;97007.00;;;5.20
19666;BMP180;9980;51.020;7.772;2022-11-20T01:16:32;97000.00;;;5.20
19666;BMP180;9980;51.020;7.772;2022-11-20T01:19:02;97008.00;;;5.20
19666;BMP180;9980;51.020;7.772;2022-11-20T01:21:35;97010.00;;;5.20
19666;BMP180;9980;51.020;7.772;2022-11-20T01:24:04;97022.00;;;5.20
19666;BMP180;9980;51.020;7.772;2022-11-20T01:26:35;97008.00;;;5.20
19666;BMP180;9980;51.020;7.772;2022-11-20T01:29:02;97011.00;;;5.20
19666;BMP180;9980;51.020;7.772;2022-11-20T01:31:35;96987.00;;;5.20
19666;BMP180;9980;51.020;7.772;2022-11-20T01:34:12;97006.00;;;5.20
19666;BMP180;9980;51.020;7.772;2022-11-20T01:36:39;96996.00;;;5.20
19666;BMP180;9980;51.020;7.772;2022-11-20T01:39:19;96989.00;;;5.10
19666;BMP180;9980;51.020;7.772;2022-11-20T01:41:48;96990.00;;;5.20
19666;BMP180;9980;51.020;7.772;2022-11-20T01:47:25;96992.00;;;5.20
19666;BMP180;9980;51.020;7.772;2022-11-20T01:50:03;96975.00;;;5.20
19666;BMP180;9980;51.020;7.772;2022-11-20T01:52:57;96991.00;;;5.20
19666;BMP180;9980;51.020;7.772;2022-11-20T01:55:34;96967.00;;;5.20
19666;BMP180;9980;51.020;7.772;2022-11-20T01:58:03;96971.00;;;5.30
19666;BMP180;9980;51.020;7.772;2022-11-20T02:00:30;96970.00;;;5.30
19666;BMP180;9980;51.020;7.772;2022-11-20T02:03:01;96976.00;;;5.30
19666;BMP180;9980;51.020;7.772;2022-11-20T02:06:00;96957.00;;;5.30
19666;BMP180;9980;51.020;7.772;2022-11-20T02:08:48;96965.00;;;5.30
19666;BMP180;9980;51.020;7.772;2022-11-20T02:11:22;96965.00;;;5.30
19666;BMP180;9980;51.020;7.772;2022-11-20T02:13:49;96962.00;;;5.30
19666;BMP180;9980;51.020;7.772;2022-11-20T02:16:23;96964.00;;;5.30
19666;BMP180;9980;51.020;7.772;2022-11-20T02:18:52;96962.00;;;5.30
19666;BMP180;9980;51.020;7.772;2022-11-20T02:21:30;96946.00;;;5.30
19666;BMP180;9980;51.020;7.772;2022-11-20T02:24:08;96945.00;;;5.20
19666;BMP180;9980;51.020;7.772;2022-11-20T02:27:00;96942.00;;;5.30
19666;BMP180;9980;51.020;7.772;2022-11-20T02:29:40;96937.00;;;5.20
19666;BMP180;9980;51.020;7.772;2022-11-20T02:32:32;96945.00;;;5.20
19666;BMP180;9980;51.020;7.772;2022-11-20T02:35:53;96958.00;;;5.30
19666;BMP180;9980;51.020;7.772;2022-11-20T02:38:01;96955.00;;;5.30
19666;BMP180;9980;51.020;7.772;2022-11-20T02:40:29;96957.00;;;5.30
19666;BMP180;9980;51.020;7.772;2022-11-20T02:42:56;96953.00;;;5.30
19666;BMP180;9980;51.020;7.772;2022-11-20T02:45:24;96961.00;;;5.30
19666;BMP180;9980;51.020;7.772;2022-11-20T02:47:51;96953.00;;;5.30
19666;BMP180;9980;51.020;7.772;2022-11-20T02:50:17;96956.00;;;5.40
19666;BMP180;9980;51.020;7.772;2022-11-20T02:52:44;96952.00;;;5.40
19666;BMP180;9980;51.020;7.772;2022-11-20T02:55:10;96955.00;;;5.40
19666;BMP180;9980;51.020;7.772;2022-11-20T02:57:36;96949.00;;;5.40
19666;BMP180;9980;51.020;7.772;2022-11-20T03:00:04;96947.00;;;5.40
19666;BMP180;9980;51.020;7.772;2022-11-20T03:02:31;96947.00;;;5.40
19666;BMP180;9980;51.020;7.772;2022-11-20T03:04:57;96939.00;;;5.40
19666;BMP180;9980;51.020;7.772;2022-11-20T03:07:24;96937.00;;;5.40
19666;BMP180;9980;51.020;7.772;2022-11-20T03:09:50;96934.00;;;5.40
19666;BMP180;9980;51.020;7.772;2022-11-20T03:12:16;96936.00;;;5.40
19666;BMP180;9980;51.020;7.772;2022-11-20T03:14:43;96933.00;;;5.40
19666;BMP180;9980;51.020;7.772;2022-11-20T03:17:09;96935.00;;;5.40
19666;BMP180;9980;51.020;7.772;2022-11-20T03:19:35;96925.00;;;5.40
19666;BMP180;9980;51.020;7.772;2022-11-20T03:22:01;96935.00;;;5.40
19666;BMP180;9980;51.020;7.772;2022-11-20T03:24:27;96939.00;;;5.40
19666;BMP180;9980;51.020;7.772;2022-11-20T03:26:54;96934.00;;;5.40
19666;BMP180;9980;51.020;7.772;2022-11-20T03:29:20;96927.00;;;5.50
19666;BMP180;9980;51.020;7.772;2022-11-20T03:31:47;96933.00;;;5.50
19666;BMP180;9980;51.020;7.772;2022-11-20T03:34:13;96922.00;;;5.50
19666;BMP180;9980;51.020;7.772;2022-11-20T03:36:41;96919.00;;;5.40
19666;BMP180;9980;51.020;7.772;2022-11-20T03:39:09;96924.00;;;5.50
19666;BMP180;9980;51.020;7.772;2022-11-20T03:41:39;96916.00;;;5.50
19666;BMP180;9980;51.020;7.772;2022-11-20T03:44:08;96937.00;;;5.50
19666;BMP180;9980;51.020;7.772;2022-11-20T03:46:35;96924.00;;;5.50
19666;BMP180;9980;51.020;7.772;2022-11-20T03:49:02;96905.00;;;5.50
19666;BMP180;9980;51.020;7.772;2022-11-20T03:51:35;96901.00;;;5.50
19666;BMP180;9980;51.020;7.772;2022-11-20T03:54:06;96911.00;;;5.50
19666;BMP180;9980;51.020;7.772;2022-11-20T03:56:36;96905.00;;;5.50
19666;BMP180;9980;51.020;7.772;2022-11-20T03:59:03;96911.00;;;5.50
19666;BMP180;9980;51.020;7.772;2022-11-20T04:01:35;96900.00;;;5.50
19666;BMP180;9980;51.020;7.772;2022-11-20T04:04:02;96904.00;;;5.50
19666;BMP180;9980;51.020;7.772;2022-11-20T04:06:38;96892.00;;;5.50
19666;BMP180;9980;51.020;7.772;2022-11-20T04:09:05;96897.00;;;5.50
19666;BMP180;9980;51.020;7.772;2022-11-20T04:11:35;96900.00;;;5.50
19666;BMP180;9980;51.020;7.772;2022-11-20T04:14:05;96906.00;;;5.50
19666;BMP180;9980;51.020;7.772;2022-11-20T04:16:35;96890.00;;;5.40
19666;BMP180;9980;51.020;7.772;2022-11-20T04:19:06;96902.00;;;5.50
19666;BMP180;9980;51.020;7.772;2022-11-20T04:21:32;96897.00;;;5.50
19666;BMP180;9980;51.020;7.772;2022-11-20T04:23:59;96884.00;;;5.40
19666;BMP180;9980;51.020;7.772;2022-11-20T04:26:28;96895.00;;;5.50
19666;BMP180;9980;51.020;7.772;2022-11-20T04:28:55;96888.00;;;5.40
19666;BMP180;9980;51.020;7.772;2022-11-20T04:31:28;96898.00;;;5.40
19666;BMP180;9980;51.020;7.772;2022-11-20T04:33:58;96900.00;;;5.40
19666;BMP180;9980;51.020;7.772;2022-11-20T04:36:26;96892.00;;;5.40
19666;BMP180;9980;51.020;7.772;2022-11-20T04:38:55;96894.00;;;5.40
19666;BMP180;9980;51.020;7.772;2022-11-20T04:41:29;96886.00;;;5.40
19666;BMP180;9980;51.020;7.772;2022-11-20T04:44:00;96885.00;;;5.40
19666;BMP180;9980;51.020;7.772;2022-11-20T04:46:35;96896.00;;;5.40
19666;BMP180;9980;51.020;7.772;2022-11-20T04:49:02;96895.00;;;5.50
19666;BMP180;9980;51.020;7.772;2022-11-20T04:51:28;96906.00;;;5.50
19666;BMP180;9980;51.020;7.772;2022-11-20T04:53:54;96909.00;;;5.50
19666;BMP180;9980;51.020;7.772;2022-11-20T04:56:21;96918.00;;;5.50
19666;BMP180;9980;51.020;7.772;2022-11-20T04:58:47;96905.00;;;5.50
19666;BMP180;9980;51.020;7.772;2022-11-20T05:01:22;96899.00;;;5.50
19666;BMP180;9980;51.020;7.772;2022-11-20T05:03:50;96920.00;;;5.50
19666;BMP180;9980;51.020;7.772;2022-11-20T05:06:19;96908.00;;;5.60
19666;BMP180;9980;51.020;7.772;2022-11-20T05:08:46;96889.00;;;5.50
19666;BMP180;9980;51.020;7.772;2022-11-20T05:11:16;96901.00;;;5.60
19666;BMP180;9980;51.020;7.772;2022-11-20T05:13:43;96891.00;;;5.60
19666;BMP180;9980;51.020;7.772;2022-11-20T05:16:14;96893.00;;;5.60
19666;BMP180;9980;51.020;7.772;2022-11-20T05:18:42;96892.00;;;5.60
19666;BMP180;9980;51.020;7.772;2022-11-20T05:21:09;96905.00;;;5.60
19666;BMP180;9980;51.020;7.772;2022-11-20T05:23:37;96889.00;;;5.60
19666;BMP180;9980;51.020;7.772;2022-11-20T05:26:05;96883.00;;;5.60
19666;BMP180;9980;51.020;7.772;2022-11-20T05:28:33;96894.00;;;5.60
19666;BMP180;9980;51.020;7.772;2022-11-20T05:31:14;96896.00;;;5.60
19666;BMP180;9980;51.020;7.772;2022-11-20T05:33:43;96886.00;;;5.60
19666;BMP180;9980;51.020;7.772;2022-11-20T05:36:14;96907.00;;;5.60
19666;BMP180;9980;51.020;7.772;2022-11-20T05:38:41;96891.00;;;5.60
19666;BMP180;9980;51.020;7.772;2022-11-20T05:41:15;96898.00;;;5.60
19666;BMP180;9980;51.020;7.772;2022-11-20T05:43:44;96895.00;;;5.60
19666;BMP180;9980;51.020;7.772;2022-11-20T05:46:14;96890.00;;;5.60
19666;BMP180;9980;51.020;7.772;2022-11-20T05:48:42;96902.00;;;5.60
19666;BMP180;9980;51.020;7.772;2022-11-20T05:51:12;96897.00;;;5.60
19666;BMP180;9980;51.020;7.772;2022-11-20T05:53:39;96900.00;;;5.60
19666;BMP180;9980;51.020;7.772;2022-11-20T05:56:16;96884.00;;;5.60
19666;BMP180;9980;51.020;7.772;2022-11-20T05:58:44;96878.00;;;5.60
19666;BMP180;9980;51.020;7.772;2022-11-20T06:01:11;96884.00;;;5.60
19666;BMP180;9980;51.020;7.772;2022-11-20T06:03:39;96892.00;;;5.60
19666;BMP180;9980;51.020;7.772;2022-11-20T06:06:06;96890.00;;;5.60
19666;BMP180;9980;51.020;7.772;2022-11-20T06:08:33;96904.00;;;5.60
19666;BMP180;9980;51.020;7.772;2022-11-20T06:11:09;96900.00;;;5.60
19666;BMP180;9980;51.020;7.772;2022-11-20T06:13:36;96889.00;;;5.60
19666;BMP180;9980;51.020;7.772;2022-11-20T06:16:09;96893.00;;;5.60
19666;BMP180;9980;51.020;7.772;2022-11-20T06:18:35;96896.00;;;5.60
19666;BMP180;9980;51.020;7.772;2022-11-20T06:21:10;96892.00;;;5.60
19666;BMP180;9980;51.020;7.772;2022-11-20T06:23:37;96909.00;;;5.70
19666;BMP180;9980;51.020;7.772;2022-11-20T06:26:12;96902.00;;;5.70
19666;BMP180;9980;51.020;7.772;2022-11-20T06:28:39;96910.00;;;5.70
19666;BMP180;9980;51.020;7.772;2022-11-20T06:31:06;96888.00;;;5.70
19666;BMP180;9980;51.020;7.772;2022-11-20T06:33:33;96895.00;;;5.70
19666;BMP180;9980;51.020;7.772;2022-11-20T06:36:00;96894.00;;;5.70
19666;BMP180;9980;51.020;7.772;2022-11-20T06:38:33;96888.00;;;5.70
19666;BMP180;9980;51.020;7.772;2022-11-20T06:40:59;96899.00;;;5.70
19666;BMP180;9980;51.020;7.772;2022-11-20T06:43:28;96892.00;;;5.70
19666;BMP180;9980;51.020;7.772;2022-11-20T06:45:56;96888.00;;;5.70
19666;BMP180;9980;51.020;7.772;2022-11-20T06:48:25;96895.00;;;5.70
19666;BMP180;9980;51.020;7.772;2022-11-20T06:50:52;96904.00;;;5.70
19666;BMP180;9980;51.020;7.772;2022-11-20T06:53:18;96897.00;;;5.70
19666;BMP180;9980;51.020;7.772;2022-11-20T06:55:47;96891.00;;;5.80
19666;BMP180;9980;51.020;7.772;2022-11-20T06:58:15;96911.00;;;5.70
19666;BMP180;9980;51.020;7.772;2022-11-20T07:00:42;96892.00;;;5.70
19666;BMP180;9980;51.020;7.772;2022-11-20T07:03:11;96906.00;;;5.80
19666;BMP180;9980;51.020;7.772;2022-11-20T07:05:38;96926.00;;;5.80
19666;BMP180;9980;51.020;7.772;2022-11-20T07:08:05;96918.00;;;5.80
19666;BMP180;9980;51.020;7.772;2022-11-20T07:10:32;96906.00;;;5.80
19666;BMP180;9980;51.020;7.772;2022-11-20T07:12:58;96930.00;;;5.80
19666;BMP180;9980;51.020;7.772;2022-11-20T07:15:26;96921.00;;;5.80
19666;BMP180;9980;51.020;7.772;2022-11-20T07:17:52;96910.00;;;5.80
19666;BMP180;9980;51.020;7.772;2022-11-20T07:20:18;96921.00;;;5.80
19666;BMP180;9980;51.020;7.772;2022-11-20T07:22:44;96932.00;;;5.80
19666;BMP180;9980;51.020;7.772;2022-11-20T07:25:11;96929.00;;;5.80
19666;BMP180;9980;51.020;7.772;2022-11-20T07:27:37;96915.00;;;5.80
19666;BMP180;9980;51.020;7.772;2022-11-20T07:30:04;96913.00;;;5.80
19666;BMP180;9980;51.020;7.772;2022-11-20T07:32:31;96918.00;;;5.80
19666;BMP180;9980;51.020;7.772;2022-11-20T07:34:57;96932.00;;;5.80
19666;BMP180;9980;51.020;7.772;2022-11-20T07:37:26;96917.00;;;5.90
19666;BMP180;9980;51.020;7.772;2022-11-20T07:39:52;96923.00;;;5.90
19666;BMP180;9980;51.020;7.772;2022-11-20T07:42:19;96911.00;;;5.90
19666;BMP180;9980;51.020;7.772;2022-11-20T07:44:45;96912.00;;;5.90
19666;BMP180;9980;51.020;7.772;2022-11-20T07:47:11;96917.00;;;6.00
19666;BMP180;9980;51.020;7.772;2022-11-20T07:49:37;96908.00;;;6.00
19666;BMP180;9980;51.020;7.772;2022-11-20T07:52:04;96908.00;;;6.00
19666;BMP180;9980;51.020;7.772;2022-11-20T07:54:31;96926.00;;;6.00
19666;BMP180;9980;51.020;7.772;2022-11-20T07:56:57;96925.00;;;6.00
19666;BMP180;9980;51.020;7.772;2022-11-20T07:59:23;96925.00;;;6.00
19666;BMP180;9980;51.020;7.772;2022-11-20T08:01:50;96922.00;;;6.00
19666;BMP180;9980;51.020;7.772;2022-11-20T08:04:16;96924.00;;;6.10
19666;BMP180;9980;51.020;7.772;2022-11-20T08:06:42;96933.00;;;6.10
19666;BMP180;9980;51.020;7.772;2022-11-20T08:09:09;96917.00;;;6.10
19666;BMP180;9980;51.020;7.772;2022-11-20T08:11:35;96925.00;;;6.20
19666;BMP180;9980;51.020;7.772;2022-11-20T08:14:20;96907.00;;;6.20
19666;BMP180;9980;51.020;7.772;2022-11-20T08:16:49;96919.00;;;6.20
19666;BMP180;9980;51.020;7.772;2022-11-20T08:19:19;96938.00;;;6.30
19666;BMP180;9980;51.020;7.772;2022-11-20T08:21:49;96930.00;;;6.30
19666;BMP180;9980;51.020;7.772;2022-11-20T08:24:16;96935.00;;;6.30
19666;BMP180;9980;51.020;7.772;2022-11-20T08:26:45;96921.00;;;6.30
19666;BMP180;9980;51.020;7.772;2022-11-20T08:29:11;96938.00;;;6.40
19666;BMP180;9980;51.020;7.772;2022-11-20T08:31:37;96927.00;;;6.40
19666;BMP180;9980;51.020;7.772;2022-11-20T08:34:04;96931.00;;;6.50
19666;BMP180;9980;51.020;7.772;2022-11-20T08:36:35;96946.00;;;6.50
19666;BMP180;9980;51.020;7.772;2022-11-20T08:39:03;96928.00;;;6.50
19666;BMP180;9980;51.020;7.772;2022-11-20T08:41:30;96915.00;;;6.60
19666;BMP180;9980;51.020;7.772;2022-11-20T08:44:02;96932.00;;;6.60
19666;BMP180;9980;51.020;7.772;2022-11-20T08:46:41;96929.00;;;6.70
19666;BMP180;9980;51.020;7.772;2022-11-20T08:49:11;96926.00;;;6.70
19666;BMP180;9980;51.020;7.772;2022-11-20T08:51:39;96921.00;;;6.70
19666;BMP180;9980;51.020;7.772;2022-11-20T08:54:06;96928.00;;;6.70
19666;BMP180;9980;51.020;7.772;2022-11-20T08:56:33;96932.00;;;6.80
19666;BMP180;9980;51.020;7.772;2022-11-20T08:58:59;96937.00;;;6.80
19666;BMP180;9980;51.020;7.772;2022-11-20T09:01:46;96927.00;;;6.80
19666;BMP180;9980;51.020;7.772;2022-11-20T09:04:12;96913.00;;;6.90
19666;BMP180;9980;51.020;7.772;2022-11-20T09:06:40;96928.00;;;6.90
19666;BMP180;9980;51.020;7.772;2022-11-20T09:09:08;96924.00;;;7.00
19666;BMP180;9980;51.020;7.772;2022-11-20T09:11:35;96920.00;;;7.00
19666;BMP180;9980;51.020;7.772;2022-11-20T09:14:02;96924.00;;;7.10
19666;BMP180;9980;51.020;7.772;2022-11-20T09:16:28;96924.00;;;7.10
19666;BMP180;9980;51.020;7.772;2022-11-20T09:18:55;96932.00;;;7.20
19666;BMP180;9980;51.020;7.772;2022-11-20T09:21:41;96920.00;;;7.20
19666;BMP180;9980;51.020;7.772;2022-11-20T09:24:07;96923.00;;;7.20
19666;BMP180;9980;51.020;7.772;2022-11-20T09:26:33;96935.00;;;7.30
19666;BMP180;9980;51.020;7.772;2022-11-20T09:29:00;96932.00;;;7.30
19666;BMP180;9980;51.020;7.772;2022-11-20T09:31:26;96938.00;;;7.40
19666;BMP180;9980;51.020;7.772;2022-11-20T09:33:52;96934.00;;;7.30
19666;BMP180;9980;51.020;7.772;2022-11-20T09:36:18;96943.00;;;7.40
19666;BMP180;9980;51.020;7.772;2022-11-20T09:38:46;96936.00;;;7.40
19666;BMP180;9980;51.020;7.772;2022-11-20T09:41:36;96949.00;;;7.40
19666;BMP180;9980;51.020;7.772;2022-11-20T09:44:51;96935.00;;;7.40
19666;BMP180;9980;51.020;7.772;2022-11-20T09:47:44;96937.00;;;7.40
19666;BMP180;9980;51.020;7.772;2022-11-20T09:53:35;96932.00;;;7.50
19666;BMP180;9980;51.020;7.772;2022-11-20T09:56:04;96918.00;;;7.50
19666;BMP180;9980;51.020;7.772;2022-11-20T09:58:41;96929.00;;;7.50
19666;BMP180;9980;51.020;7.772;2022-11-20T10:01:26;96923.00;;;7.60
19666;BMP180;9980;51.020;7.772;2022-11-20T10:04:13;96909.00;;;7.60
19666;BMP180;9980;51.020;7.772;2022-11-20T10:06:56;96909.00;;;7.70
19666;BMP180;9980;51.020;7.772;2022-11-20T10:09:53;96918.00;;;7.70
19666;BMP180;9980;51.020;7.772;2022-11-20T10:13:13;96918.00;;;7.80
19666;BMP180;9980;51.020;7.772;2022-11-20T10:25:10;96887.00;;;7.90
19666;BMP180;9980;51.020;7.772;2022-11-20T10:28:20;96887.00;;;8.00
19666;BMP180;9980;51.020;7.772;2022-11-20T10:31:00;96882.00;;;8.00
19666;BMP180;9980;51.020;7.772;2022-11-20T10:33:35;96884.00;;;8.00
19666;BMP180;9980;51.020;7.772;2022-11-20T10:36:44;96888.00;;;8.00
19666;BMP180;9980;51.020;7.772;2022-11-20T10:39:26;96876.00;;;8.00
19666;BMP180;9980;51.020;7.772;2022-11-20T10:41:56;96876.00;;;8.10
19666;BMP180;9980;51.020;7.772;2022-11-20T10:44:28;96882.00;;;8.10
19666;BMP180;9980;51.020;7.772;2022-11-20T10:47:18;96889.00;;;8.10
19666;BMP180;9980;51.020;7.772;2022-11-20T10:49:55;96891.00;;;8.10
19666;BMP180;9980;51.020;7.772;2022-11-20T10:56:03;96892.00;;;8.10
19666;BMP180;9980;51.020;7.772;2022-11-20T10:58:56;96879.00;;;8.10
19666;BMP180;9980;51.020;7.772;2022-11-20T11:01:26;96874.00;;;8.20
19666;BMP180;9980;51.020;7.772;2022-11-20T11:03:55;96871.00;;;8.20
19666;BMP180;9980;51.020;7.772;2022-11-20T11:06:43;96871.00;;;8.20
19666;BMP180;9980;51.020;7.772;2022-11-20T11:09:17;96865.00;;;8.20
19666;BMP180;9980;51.020;7.772;2022-11-20T11:11:46;96860.00;;;8.30
19666;BMP180;9980;51.020;7.772;2022-11-20T11:14:15;96863.00;;;8.30
19666;BMP180;9980;51.020;7.772;2022-11-20T11:16:57;96860.00;;;8.30
19666;BMP180;9980;51.020;7.772;2022-11-20T11:19:24;96863.00;;;8.30
19666;BMP180;9980;51.020;7.772;2022-11-20T11:21:56;96853.00;;;8.20
19666;BMP180;9980;51.020;7.772;2022-11-20T11:24:29;96846.00;;;8.30
19666;BMP180;9980;51.020;7.772;2022-11-20T11:27:14;96841.00;;;8.30
19666;BMP180;9980;51.020;7.772;2022-11-20T11:29:45;96849.00;;;8.30
19666;BMP180;9980;51.020;7.772;2022-11-20T11:32:20;96847.00;;;8.30
19666;BMP180;9980;51.020;7.772;2022-11-20T11:35:06;96858.00;;;8.30
19666;BMP180;9980;51.020;7.772;2022-11-20T11:37:38;96853.00;;;8.30
19666;BMP180;9980;51.020;7.772;2022-11-20T11:40:10;96846.00;;;8.40
19666;BMP180;9980;51.020;7.772;2022-11-20T11:43:05;96839.00;;;8.40
19666;BMP180;9980;51.020;7.772;2022-11-20T11:45:55;96834.00;;;8.50
19666;BMP180;9980;51.020;7.772;2022-11-20T11:48:22;96833.00;;;8.50
19666;BMP180;9980;51.020;7.772;2022-11-20T11:50:50;96815.00;;;8.50
19666;BMP180;9980;51.020;7.772;2022-11-20T11:53:21;96818.00;;;8.50
19666;BMP180;9980;51.020;7.772;2022-11-20T11:56:09;96820.00;;;8.60
19666;BMP180;9980;51.020;7.772;2022-11-20T11:58:50;96809.00;;;8.60
19666;BMP180;9980;51.020;7.772;2022-11-20T12:01:38;96813.00;;;8.60
19666;BMP180;9980;51.020;7.772;2022-11-20T12:04:28;96822.00;;;8.60
19666;BMP180;9980;51.020;7.772;2022-11-20T12:07:20;96819.00;;;8.70
19666;BMP180;9980;51.020;7.772;2022-11-20T12:10:25;96808.00;;;8.70
19666;BMP180;9980;51.020;7.772;2022-11-20T12:13:40;96804.00;;;8.70
19666;BMP180;9980;51.020;7.772;2022-11-20T12:16:13;96799.00;;;8.80
19666;BMP180;9980;51.020;7.772;2022-11-20T12:18:41;96781.00;;;8.80
19666;BMP180;9980;51.020;7.772;2022-11-20T12:30:22;96787.00;;;8.80
19666;BMP180;9980;51.020;7.772;2022-11-20T12:38:28;96781.00;;;8.70
19666;BMP180;9980;51.020;7.772;2022-11-20T12:41:27;96778.00;;;8.70
19666;BMP180;9980;51.020;7.772;2022-11-20T12:48:08;96767.00;;;8.60
19666;BMP180;9980;51.020;7.772;2022-11-20T12:57:00;96767.00;;;8.60
19666;BMP180;9980;51.020;7.772;2022-11-20T13:00:07;96779.00;;;8.60
19666;BMP180;9980;51.020;7.772;2022-11-20T13:06:11;96750.00;;;8.60
19666;BMP180;9980;51.020;7.772;2022-11-20T13:08:43;96751.00;;;8.60
19666;BMP180;9980;51.020;7.772;2022-11-20T13:11:47;96740.00;;;8.60
19666;BMP180;9980;51.020;7.772;2022-11-20T13:14:36;96750.00;;;8.60
19666;BMP180;9980;51.020;7.772;2022-11-20T13:17:43;96746.00;;;8.60
19666;BMP180;9980;51.020;7.772;2022-11-20T13:20:17;96725.00;;;8.60
19666;BMP180;9980;51.020;7.772;2022-11-20T13:22:53;96726.00;;;8.60
19666;BMP180;9980;51.020;7.772;2022-11-20T13:25:34;96705.00;;;8.70
19666;BMP180;9980;51.020;7.772;2022-11-20T13:28:24;96716.00;;;8.70
19666;BMP180;9980;51.020;7.772;2022-11-20T13:30:53;96704.00;;;8.70
19666;BMP180;9980;51.020;7.772;2022-11-20T13:33:35;96711.00;;;8.70
19666;BMP180;9980;51.020;7.772;2022-11-20T13:36:27;96714.00;;;8.70
19666;BMP180;9980;51.020;7.772;2022-11-20T13:38:55;96694.00;;;8.70
19666;BMP180;9980;51.020;7.772;2022-11-20T13:41:35;96701.00;;;8.70
19666;BMP180;9980;51.020;7.772;2022-11-20T13:44:35;96694.00;;;8.70
19666;BMP180;9980;51.020;7.772;2022-11-20T13:47:20;96682.00;;;8.70
19666;BMP180;9980;51.020;7.772;2022-11-20T13:49:47;96690.00;;;8.70
19666;BMP180;9980;51.020;7.772;2022-11-20T13:53:06;96683.00;;;8.70
19666;BMP180;9980;51.020;7.772;2022-11-20T13:56:05;96685.00;;;8.70
19666;BMP180;9980;51.020;7.772;2022-11-20T13:58:55;96679.00;;;8.70
19666;BMP180;9980;51.020;7.772;2022-11-20T14:01:30;96689.00;;;8.70
19666;BMP180;9980;51.020;7.772;2022-11-20T14:03:58;96671.00;;;8.70
19666;BMP180;9980;51.020;7.772;2022-11-20T14:06:41;96663.00;;;8.70
19666;BMP180;9980;51.020;7.772;2022-11-20T14:09:25;96665.00;;;8.70
19666;BMP180;9980;51.020;7.772;2022-11-20T14:11:52;96661.00;;;8.70
19666;BMP180;9980;51.020;7.772;2022-11-20T14:14:22;96645.00;;;8.60
19666;BMP180;9980;51.020;7.772;2022-11-20T14:16:52;96646.00;;;8.60
19666;BMP180;9980;51.020;7.772;2022-11-20T14:22:08;96648.00;;;8.70
19666;BMP180;9980;51.020;7.772;2022-11-20T14:24:35;96625.00;;;8.60
19666;BMP180;9980;51.020;7.772;2022-11-20T14:27:02;96642.00;;;8.60
19666;BMP180;9980;51.020;7.772;2022-11-20T14:29:38;96626.00;;;8.60
19666;BMP180;9980;51.020;7.772;2022-11-20T14:32:08;96638.00;;;8.70
19666;BMP180;9980;51.020;7.772;2022-11-20T14:34:46;96629.00;;;8.70
19666;BMP180;9980;51.020;7.772;2022-11-20T14:37:20;96622.00;;;8.70
19666;BMP180;9980;51.020;7.772;2022-11-20T14:39:56;96622.00;;;8.70
19666;BMP180;9980;51.020;7.772;2022-11-20T14:42:26;96633.00;;;8.70
19666;BMP180;9980;51.020;7.772;2022-11-20T14:44:58;96624.00;;;8.70
19666;BMP180;9980;51.020;7.772;2022-11-20T14:47:30;96613.00;;;8.70
19666;BMP180;9980;51.020;7.772;2022-11-20T14:49:58;96607.00;;;8.70
19666;BMP180;9980;51.020;7.772;2022-11-20T14:52:27;96600.00;;;8.70
19666;BMP180;9980;51.020;7.772;2022-11-20T14:54:57;96616.00;;;8.70
19666;BMP180;9980;51.020;7.772;2022-11-20T15:00:19;96605.00;;;8.60
19666;BMP180;9980;51.020;7.772;2022-11-20T15:02:49;96587.00;;;8.70
19666;BMP180;9980;51.020;7.772;2022-11-20T15:05:19;96608.00;;;8.60
19666;BMP180;9980;51.020;7.772;2022-11-20T15:07:49;96589.00;;;8.60
19666;BMP180;9980;51.020;7.772;2022-11-20T15:10:26;96581.00;;;8.60
19666;BMP180;9980;51.020;7.772;2022-11-20T15:13:02;96584.00;;;8.60
19666;BMP180;9980;51.020;7.772;2022-11-20T15:15:50;96590.00;;;8.60
19666;BMP180;9980;51.020;7.772;2022-11-20T15:18:22;96568.00;;;8.60
19666;BMP180;9980;51.020;7.772;2022-11-20T15:20:50;96580.00;;;8.60
19666;BMP180;9980;51.020;7.772;2022-11-20T15:23:18;96585.00;;;8.60
19666;BMP180;9980;51.020;7.772;2022-11-20T15:25:46;96566.00;;;8.60
19666;BMP180;9980;51.020;7.772;2022-11-20T15:28:28;96570.00;;;8.60
19666;BMP180;9980;51.020;7.772;2022-11-20T15:30:55;96563.00;;;8.60
19666;BMP180;9980;51.020;7.772;2022-11-20T15:33:22;96556.00;;;8.60
19666;BMP180;9980;51.020;7.772;2022-11-20T15:35:48;96551.00;;;8.60
19666;BMP180;9980;51.020;7.772;2022-11-20T15:38:14;96548.00;;;8.60
19666;BMP180;9980;51.020;7.772;2022-11-20T15:40:41;96539.00;;;8.60
19666;BMP180;9980;51.020;7.772;2022-11-20T15:43:07;96565.00;;;8.60
19666;BMP180;9980;51.020;7.772;2022-11-20T15:45:50;96543.00;;;8.50
19666;BMP180;9980;51.020;7.772;2022-11-20T15:51:27;96534.00;;;8.50
19666;BMP180;9980;51.020;7.772;2022-11-20T15:53:55;96530.00;;;8.50
19666;BMP180;9980;51.020;7.772;2022-11-20T15:56:21;96524.00;;;8.50
19666;BMP180;9980;51.020;7.772;2022-11-20T15:58:48;96530.00;;;8.50
19666;BMP180;9980;51.020;7.772;2022-11-20T16:01:18;96518.00;;;8.50
19666;BMP180;9980;51.020;7.772;2022-11-20T16:03:45;96522.00;;;8.50